sensor_id;sensor_type;location;lat;lon;timestamp;P1;durP1;ratioP1;P2;durP2;ratioP2
41061;SDS011;26812;42.662;23.352;2023-07-02T00:00:30;8.10;;;4.13;;
41061;SDS011;26812;42.662;23.352;2023-07-02T00:02:55;7.65;;;4.53;;
41061;SDS011;26812;42.662;23.352;2023-07-02T00:05:21;6.57;;;4.18;;
41061;SDS011;26812;42.662;23.352;2023-07-02T00:07:46;6.65;;;4.00;;
41061;SDS011;26812;42.662;23.352;2023-07-02T00:10:11;5.82;;;3.60;;
41061;SDS011;26812;42.662;23.352;2023-07-02T00:12:37;8.90;;;4.88;;
41061;SDS011;26812;42.662;23.352;2023-07-02T00:15:02;10.68;;;5.05;;
41061;SDS011;26812;42.662;23.352;2023-07-02T00:17:29;7.78;;;5.30;;
41061;SDS011;26812;42.662;23.352;2023-07-02T00:19:54;9.23;;;4.57;;
41061;SDS011;26812;42.662;23.352;2023-07-02T00:22:20;11.45;;;5.28;;
41061;SDS011;26812;42.662;23.352;2023-07-02T00:24:46;6.15;;;4.43;;
41061;SDS011;26812;42.662;23.352;2023-07-02T00:27:11;9.13;;;5.28;;
41061;SDS011;26812;42.662;23.352;2023-07-02T00:29:37;7.28;;;4.32;;
41061;SDS011;26812;42.662;23.352;2023-07-02T00:32:02;9.13;;;4.20;;
41061;SDS011;26812;42.662;23.352;2023-07-02T00:34:28;7.32;;;4.57;;
41061;SDS011;26812;42.662;23.352;2023-07-02T00:36:54;5.93;;;3.83;;
41061;SDS011;26812;42.662;23.352;2023-07-02T00:39:19;7.60;;;4.80;;
41061;SDS011;26812;42.662;23.352;2023-07-02T00:41:44;6.53;;;3.75;;
41061;SDS011;26812;42.662;23.352;2023-07-02T00:44:13;12.40;;;4.78;;
41061;SDS011;26812;42.662;23.352;2023-07-02T00:46:38;7.90;;;4.65;;
41061;SDS011;26812;42.662;23.352;2023-07-02T00:49:04;6.13;;;3.95;;
41061;SDS011;26812;42.662;23.352;2023-07-02T00:51:30;7.40;;;4.55;;
41061;SDS011;26812;42.662;23.352;2023-07-02T00:53:56;9.27;;;4.10;;
41061;SDS011;26812;42.662;23.352;2023-07-02T00:56:23;6.50;;;4.65;;
41061;SDS011;26812;42.662;23.352;2023-07-02T00:58:50;7.95;;;5.15;;
41061;SDS011;26812;42.662;23.352;2023-07-02T01:01:18;8.77;;;4.57;;
41061;SDS011;26812;42.662;23.352;2023-07-02T01:06:23;7.40;;;5.60;;
41061;SDS011;26812;42.662;23.352;2023-07-02T01:08:53;7.38;;;4.68;;
41061;SDS011;26812;42.662;23.352;2023-07-02T01:11:25;9.60;;;5.30;;
41061;SDS011;26812;42.662;23.352;2023-07-02T01:17:01;8.27;;;4.70;;
41061;SDS011;26812;42.662;23.352;2023-07-02T01:22:10;6.43;;;4.20;;
41061;SDS011;26812;42.662;23.352;2023-07-02T01:24:38;9.05;;;4.03;;
41061;SDS011;26812;42.662;23.352;2023-07-02T01:27:04;7.85;;;4.35;;
41061;SDS011;26812;42.662;23.352;2023-07-02T01:29:30;6.82;;;3.97;;
41061;SDS011;26812;42.662;23.352;2023-07-02T01:31:56;7.15;;;4.35;;
41061;SDS011;26812;42.662;23.352;2023-07-02T01:34:22;6.10;;;3.95;;
41061;SDS011;26812;42.662;23.352;2023-07-02T01:36:48;7.65;;;4.93;;
41061;SDS011;26812;42.662;23.352;2023-07-02T01:39:13;8.15;;;4.80;;
41061;SDS011;26812;42.662;23.352;2023-07-02T01:41:51;8.07;;;5.28;;
41061;SDS011;26812;42.662;23.352;2023-07-02T01:44:20;7.47;;;4.28;;
41061;SDS011;26812;42.662;23.352;2023-07-02T01:46:46;7.68;;;4.13;;
41061;SDS011;26812;42.662;23.352;2023-07-02T01:49:15;8.63;;;4.70;;
41061;SDS011;26812;42.662;23.352;2023-07-02T01:51:44;8.05;;;4.40;;
41061;SDS011;26812;42.662;23.352;2023-07-02T01:54:11;7.43;;;4.07;;
41061;SDS011;26812;42.662;23.352;2023-07-02T01:56:36;9.00;;;4.75;;
41061;SDS011;26812;42.662;23.352;2023-07-02T01:59:01;8.43;;;4.78;;
41061;SDS011;26812;42.662;23.352;2023-07-02T02:01:27;8.85;;;5.28;;
41061;SDS011;26812;42.662;23.352;2023-07-02T02:03:52;7.57;;;4.93;;
41061;SDS011;26812;42.662;23.352;2023-07-02T02:06:18;7.53;;;4.57;;
41061;SDS011;26812;42.662;23.352;2023-07-02T02:08:43;7.57;;;4.25;;
41061;SDS011;26812;42.662;23.352;2023-07-02T02:11:09;8.13;;;4.95;;
41061;SDS011;26812;42.662;23.352;2023-07-02T02:13:34;8.77;;;5.22;;
41061;SDS011;26812;42.662;23.352;2023-07-02T02:15:59;9.32;;;4.53;;
41061;SDS011;26812;42.662;23.352;2023-07-02T02:18:25;7.22;;;5.00;;
41061;SDS011;26812;42.662;23.352;2023-07-02T02:20:50;9.50;;;5.03;;
41061;SDS011;26812;42.662;23.352;2023-07-02T02:23:16;8.48;;;5.82;;
41061;SDS011;26812;42.662;23.352;2023-07-02T02:25:41;9.27;;;5.57;;
41061;SDS011;26812;42.662;23.352;2023-07-02T02:28:06;7.93;;;4.50;;
41061;SDS011;26812;42.662;23.352;2023-07-02T02:30:32;8.75;;;5.18;;
41061;SDS011;26812;42.662;23.352;2023-07-02T02:32:57;8.27;;;4.95;;
41061;SDS011;26812;42.662;23.352;2023-07-02T02:35:22;8.98;;;5.30;;
41061;SDS011;26812;42.662;23.352;2023-07-02T02:37:48;10.35;;;5.10;;
41061;SDS011;26812;42.662;23.352;2023-07-02T02:40:13;6.50;;;3.88;;
41061;SDS011;26812;42.662;23.352;2023-07-02T02:42:39;9.50;;;5.25;;
41061;SDS011;26812;42.662;23.352;2023-07-02T02:45:04;9.40;;;5.32;;
41061;SDS011;26812;42.662;23.352;2023-07-02T02:47:30;9.05;;;5.93;;
41061;SDS011;26812;42.662;23.352;2023-07-02T02:50:03;8.25;;;4.85;;
41061;SDS011;26812;42.662;23.352;2023-07-02T02:52:28;8.45;;;5.53;;
41061;SDS011;26812;42.662;23.352;2023-07-02T02:54:54;7.25;;;4.80;;
41061;SDS011;26812;42.662;23.352;2023-07-02T02:57:19;7.53;;;5.57;;
41061;SDS011;26812;42.662;23.352;2023-07-02T02:59:44;6.30;;;4.32;;
41061;SDS011;26812;42.662;23.352;2023-07-02T03:02:10;7.32;;;4.68;;
41061;SDS011;26812;42.662;23.352;2023-07-02T03:04:35;8.90;;;5.18;;
41061;SDS011;26812;42.662;23.352;2023-07-02T03:07:04;10.88;;;4.72;;
41061;SDS011;26812;42.662;23.352;2023-07-02T03:09:30;8.23;;;4.43;;
41061;SDS011;26812;42.662;23.352;2023-07-02T03:11:56;7.07;;;4.88;;
41061;SDS011;26812;42.662;23.352;2023-07-02T03:14:21;9.82;;;4.90;;
41061;SDS011;26812;42.662;23.352;2023-07-02T03:16:47;6.75;;;4.38;;
41061;SDS011;26812;42.662;23.352;2023-07-02T03:19:12;7.22;;;4.22;;
41061;SDS011;26812;42.662;23.352;2023-07-02T03:21:41;11.45;;;5.03;;
41061;SDS011;26812;42.662;23.352;2023-07-02T03:24:07;8.70;;;4.50;;
41061;SDS011;26812;42.662;23.352;2023-07-02T03:26:34;8.38;;;4.55;;
41061;SDS011;26812;42.662;23.352;2023-07-02T03:29:00;10.20;;;4.70;;
41061;SDS011;26812;42.662;23.352;2023-07-02T03:31:25;11.32;;;5.68;;
41061;SDS011;26812;42.662;23.352;2023-07-02T03:33:50;7.70;;;4.88;;
41061;SDS011;26812;42.662;23.352;2023-07-02T03:36:16;7.60;;;4.70;;
41061;SDS011;26812;42.662;23.352;2023-07-02T03:38:42;8.45;;;4.80;;
41061;SDS011;26812;42.662;23.352;2023-07-02T03:41:07;6.88;;;4.63;;
41061;SDS011;26812;42.662;23.352;2023-07-02T03:43:32;7.65;;;4.13;;
41061;SDS011;26812;42.662;23.352;2023-07-02T03:45:58;11.35;;;5.15;;
41061;SDS011;26812;42.662;23.352;2023-07-02T03:48:23;9.50;;;5.63;;
41061;SDS011;26812;42.662;23.352;2023-07-02T03:50:49;9.40;;;5.03;;
41061;SDS011;26812;42.662;23.352;2023-07-02T03:53:14;8.20;;;5.00;;
41061;SDS011;26812;42.662;23.352;2023-07-02T03:55:39;7.22;;;5.13;;
41061;SDS011;26812;42.662;23.352;2023-07-02T03:58:05;8.13;;;4.82;;
41061;SDS011;26812;42.662;23.352;2023-07-02T04:00:30;9.77;;;5.20;;
41061;SDS011;26812;42.662;23.352;2023-07-02T04:02:56;9.45;;;4.72;;
41061;SDS011;26812;42.662;23.352;2023-07-02T04:05:21;10.50;;;5.57;;
41061;SDS011;26812;42.662;23.352;2023-07-02T04:07:47;5.88;;;4.10;;
41061;SDS011;26812;42.662;23.352;2023-07-02T04:10:12;8.43;;;4.15;;
41061;SDS011;26812;42.662;23.352;2023-07-02T04:12:37;8.48;;;4.72;;
41061;SDS011;26812;42.662;23.352;2023-07-02T04:15:03;8.90;;;5.00;;
41061;SDS011;26812;42.662;23.352;2023-07-02T04:17:30;9.65;;;4.78;;
41061;SDS011;26812;42.662;23.352;2023-07-02T04:19:55;9.32;;;4.63;;
41061;SDS011;26812;42.662;23.352;2023-07-02T04:22:21;10.20;;;5.55;;
41061;SDS011;26812;42.662;23.352;2023-07-02T04:24:46;9.45;;;5.80;;
41061;SDS011;26812;42.662;23.352;2023-07-02T04:27:14;9.23;;;5.18;;
41061;SDS011;26812;42.662;23.352;2023-07-02T04:29:42;8.85;;;4.95;;
41061;SDS011;26812;42.662;23.352;2023-07-02T04:32:08;11.98;;;5.13;;
41061;SDS011;26812;42.662;23.352;2023-07-02T04:34:33;8.32;;;4.63;;
41061;SDS011;26812;42.662;23.352;2023-07-02T04:36:59;9.45;;;5.25;;
41061;SDS011;26812;42.662;23.352;2023-07-02T04:39:25;7.20;;;4.90;;
41061;SDS011;26812;42.662;23.352;2023-07-02T04:41:50;8.13;;;4.93;;
41061;SDS011;26812;42.662;23.352;2023-07-02T04:44:17;9.60;;;4.88;;
41061;SDS011;26812;42.662;23.352;2023-07-02T04:46:43;8.98;;;5.20;;
41061;SDS011;26812;42.662;23.352;2023-07-02T04:49:08;9.50;;;4.95;;
41061;SDS011;26812;42.662;23.352;2023-07-02T04:51:33;14.23;;;5.40;;
41061;SDS011;26812;42.662;23.352;2023-07-02T04:53:59;7.18;;;5.20;;
41061;SDS011;26812;42.662;23.352;2023-07-02T04:56:24;7.43;;;4.68;;
41061;SDS011;26812;42.662;23.352;2023-07-02T04:58:50;12.85;;;5.85;;
41061;SDS011;26812;42.662;23.352;2023-07-02T05:01:15;7.57;;;4.82;;
41061;SDS011;26812;42.662;23.352;2023-07-02T05:03:40;7.70;;;4.85;;
41061;SDS011;26812;42.662;23.352;2023-07-02T05:06:06;12.18;;;5.85;;
41061;SDS011;26812;42.662;23.352;2023-07-02T05:08:31;13.93;;;6.35;;
41061;SDS011;26812;42.662;23.352;2023-07-02T05:10:57;8.77;;;5.93;;
41061;SDS011;26812;42.662;23.352;2023-07-02T05:13:27;7.47;;;5.40;;
41061;SDS011;26812;42.662;23.352;2023-07-02T05:15:53;8.73;;;5.57;;
41061;SDS011;26812;42.662;23.352;2023-07-02T05:18:22;9.27;;;5.53;;
41061;SDS011;26812;42.662;23.352;2023-07-02T05:20:47;11.50;;;6.25;;
41061;SDS011;26812;42.662;23.352;2023-07-02T05:23:12;9.75;;;5.60;;
41061;SDS011;26812;42.662;23.352;2023-07-02T05:25:38;9.18;;;5.88;;
41061;SDS011;26812;42.662;23.352;2023-07-02T05:28:03;9.75;;;5.68;;
41061;SDS011;26812;42.662;23.352;2023-07-02T05:30:29;10.07;;;6.50;;
41061;SDS011;26812;42.662;23.352;2023-07-02T05:32:54;12.30;;;7.28;;
41061;SDS011;26812;42.662;23.352;2023-07-02T05:35:19;8.60;;;5.30;;
41061;SDS011;26812;42.662;23.352;2023-07-02T05:37:45;9.70;;;5.10;;
41061;SDS011;26812;42.662;23.352;2023-07-02T05:40:10;10.52;;;6.72;;
41061;SDS011;26812;42.662;23.352;2023-07-02T05:42:36;8.95;;;5.57;;
41061;SDS011;26812;42.662;23.352;2023-07-02T05:45:02;9.80;;;5.68;;
41061;SDS011;26812;42.662;23.352;2023-07-02T05:47:28;10.25;;;6.00;;
41061;SDS011;26812;42.662;23.352;2023-07-02T05:49:53;10.15;;;5.97;;
41061;SDS011;26812;42.662;23.352;2023-07-02T05:52:19;9.38;;;5.32;;
41061;SDS011;26812;42.662;23.352;2023-07-02T05:54:44;10.23;;;6.03;;
41061;SDS011;26812;42.662;23.352;2023-07-02T05:57:09;11.88;;;5.75;;
41061;SDS011;26812;42.662;23.352;2023-07-02T05:59:35;11.57;;;5.70;;
41061;SDS011;26812;42.662;23.352;2023-07-02T06:02:00;9.65;;;5.88;;
41061;SDS011;26812;42.662;23.352;2023-07-02T06:04:26;9.20;;;5.43;;
41061;SDS011;26812;42.662;23.352;2023-07-02T06:06:51;10.00;;;4.75;;
41061;SDS011;26812;42.662;23.352;2023-07-02T06:09:17;11.05;;;4.65;;
41061;SDS011;26812;42.662;23.352;2023-07-02T06:11:42;10.55;;;5.20;;
41061;SDS011;26812;42.662;23.352;2023-07-02T06:14:07;11.88;;;5.15;;
41061;SDS011;26812;42.662;23.352;2023-07-02T06:16:33;8.27;;;4.20;;
41061;SDS011;26812;42.662;23.352;2023-07-02T06:18:58;10.48;;;4.70;;
41061;SDS011;26812;42.662;23.352;2023-07-02T06:21:23;8.55;;;5.85;;
41061;SDS011;26812;42.662;23.352;2023-07-02T06:23:54;12.73;;;5.10;;
41061;SDS011;26812;42.662;23.352;2023-07-02T06:26:20;9.27;;;5.38;;
41061;SDS011;26812;42.662;23.352;2023-07-02T06:28:45;10.30;;;5.30;;
41061;SDS011;26812;42.662;23.352;2023-07-02T06:31:11;8.95;;;5.47;;
41061;SDS011;26812;42.662;23.352;2023-07-02T06:33:40;8.35;;;5.22;;
41061;SDS011;26812;42.662;23.352;2023-07-02T06:36:07;7.93;;;4.78;;
41061;SDS011;26812;42.662;23.352;2023-07-02T06:38:32;8.57;;;4.88;;
41061;SDS011;26812;42.662;23.352;2023-07-02T06:40:58;7.78;;;5.18;;
41061;SDS011;26812;42.662;23.352;2023-07-02T06:43:23;10.32;;;5.38;;
41061;SDS011;26812;42.662;23.352;2023-07-02T06:45:48;10.73;;;5.50;;
41061;SDS011;26812;42.662;23.352;2023-07-02T06:48:14;8.95;;;4.60;;
41061;SDS011;26812;42.662;23.352;2023-07-02T06:50:49;11.80;;;5.40;;
41061;SDS011;26812;42.662;23.352;2023-07-02T06:53:15;7.47;;;4.93;;
41061;SDS011;26812;42.662;23.352;2023-07-02T06:55:46;9.98;;;5.18;;
41061;SDS011;26812;42.662;23.352;2023-07-02T06:58:12;7.35;;;5.03;;
41061;SDS011;26812;42.662;23.352;2023-07-02T07:00:37;8.50;;;5.10;;
41061;SDS011;26812;42.662;23.352;2023-07-02T07:03:03;6.43;;;4.45;;
41061;SDS011;26812;42.662;23.352;2023-07-02T07:05:29;13.10;;;5.78;;
41061;SDS011;26812;42.662;23.352;2023-07-02T07:08:04;9.73;;;4.87;;
41061;SDS011;26812;42.662;23.352;2023-07-02T07:10:29;10.02;;;5.05;;
41061;SDS011;26812;42.662;23.352;2023-07-02T07:13:05;8.55;;;4.63;;
41061;SDS011;26812;42.662;23.352;2023-07-02T07:15:32;8.43;;;5.63;;
41061;SDS011;26812;42.662;23.352;2023-07-02T07:17:59;8.48;;;6.05;;
41061;SDS011;26812;42.662;23.352;2023-07-02T07:20:24;9.07;;;5.55;;
41061;SDS011;26812;42.662;23.352;2023-07-02T07:22:49;9.43;;;5.45;;
41061;SDS011;26812;42.662;23.352;2023-07-02T07:25:15;9.68;;;5.72;;
41061;SDS011;26812;42.662;23.352;2023-07-02T07:27:40;10.88;;;5.65;;
41061;SDS011;26812;42.662;23.352;2023-07-02T07:30:05;7.95;;;5.72;;
41061;SDS011;26812;42.662;23.352;2023-07-02T07:32:31;7.45;;;4.70;;
41061;SDS011;26812;42.662;23.352;2023-07-02T07:34:57;9.43;;;4.30;;
41061;SDS011;26812;42.662;23.352;2023-07-02T07:37:25;11.98;;;5.35;;
41061;SDS011;26812;42.662;23.352;2023-07-02T07:39:50;9.68;;;5.13;;
41061;SDS011;26812;42.662;23.352;2023-07-02T07:42:16;8.73;;;5.38;;
41061;SDS011;26812;42.662;23.352;2023-07-02T07:44:42;9.13;;;4.90;;
41061;SDS011;26812;42.662;23.352;2023-07-02T07:47:07;6.80;;;4.13;;
41061;SDS011;26812;42.662;23.352;2023-07-02T07:49:33;7.75;;;4.82;;
41061;SDS011;26812;42.662;23.352;2023-07-02T07:51:58;8.27;;;4.63;;
41061;SDS011;26812;42.662;23.352;2023-07-02T07:54:23;9.70;;;4.22;;
41061;SDS011;26812;42.662;23.352;2023-07-02T07:56:49;9.38;;;4.97;;
41061;SDS011;26812;42.662;23.352;2023-07-02T07:59:15;8.63;;;4.25;;
41061;SDS011;26812;42.662;23.352;2023-07-02T08:01:40;5.45;;;4.20;;
41061;SDS011;26812;42.662;23.352;2023-07-02T08:04:06;6.63;;;4.63;;
41061;SDS011;26812;42.662;23.352;2023-07-02T08:06:31;8.70;;;5.07;;
41061;SDS011;26812;42.662;23.352;2023-07-02T08:08:57;8.80;;;5.05;;
41061;SDS011;26812;42.662;23.352;2023-07-02T08:11:22;6.80;;;4.60;;
41061;SDS011;26812;42.662;23.352;2023-07-02T08:13:54;8.65;;;5.05;;
41061;SDS011;26812;42.662;23.352;2023-07-02T08:16:20;6.28;;;4.68;;
41061;SDS011;26812;42.662;23.352;2023-07-02T08:18:45;7.75;;;4.68;;
41061;SDS011;26812;42.662;23.352;2023-07-02T08:21:11;10.10;;;5.30;;
41061;SDS011;26812;42.662;23.352;2023-07-02T08:23:36;6.40;;;4.00;;
41061;SDS011;26812;42.662;23.352;2023-07-02T08:26:02;7.38;;;3.83;;
41061;SDS011;26812;42.662;23.352;2023-07-02T08:28:28;8.60;;;4.57;;
41061;SDS011;26812;42.662;23.352;2023-07-02T08:30:54;7.40;;;4.05;;
41061;SDS011;26812;42.662;23.352;2023-07-02T08:33:19;6.88;;;4.40;;
41061;SDS011;26812;42.662;23.352;2023-07-02T08:35:45;6.45;;;4.10;;
41061;SDS011;26812;42.662;23.352;2023-07-02T08:38:10;6.53;;;4.05;;
41061;SDS011;26812;42.662;23.352;2023-07-02T08:40:36;9.00;;;5.13;;
41061;SDS011;26812;42.662;23.352;2023-07-02T08:43:21;6.93;;;3.50;;
41061;SDS011;26812;42.662;23.352;2023-07-02T08:45:50;16.30;;;3.97;;
41061;SDS011;26812;42.662;23.352;2023-07-02T08:48:16;7.68;;;4.18;;
41061;SDS011;26812;42.662;23.352;2023-07-02T08:50:47;7.28;;;3.95;;
41061;SDS011;26812;42.662;23.352;2023-07-02T08:53:13;5.40;;;4.07;;
41061;SDS011;26812;42.662;23.352;2023-07-02T08:55:39;5.80;;;3.80;;
41061;SDS011;26812;42.662;23.352;2023-07-02T08:58:05;5.32;;;3.88;;
41061;SDS011;26812;42.662;23.352;2023-07-02T09:00:30;5.97;;;3.60;;
41061;SDS011;26812;42.662;23.352;2023-07-02T09:03:10;9.57;;;4.95;;
41061;SDS011;26812;42.662;23.352;2023-07-02T09:05:36;5.05;;;3.47;;
41061;SDS011;26812;42.662;23.352;2023-07-02T09:08:22;5.50;;;3.95;;
41061;SDS011;26812;42.662;23.352;2023-07-02T09:10:51;5.82;;;3.70;;
41061;SDS011;26812;42.662;23.352;2023-07-02T09:13:16;6.97;;;4.38;;
41061;SDS011;26812;42.662;23.352;2023-07-02T09:15:42;7.13;;;3.40;;
41061;SDS011;26812;42.662;23.352;2023-07-02T09:18:17;5.25;;;3.42;;
41061;SDS011;26812;42.662;23.352;2023-07-02T09:20:44;6.97;;;3.60;;
41061;SDS011;26812;42.662;23.352;2023-07-02T09:23:10;4.70;;;3.10;;
41061;SDS011;26812;42.662;23.352;2023-07-02T09:25:39;6.30;;;3.85;;
41061;SDS011;26812;42.662;23.352;2023-07-02T09:28:18;6.32;;;3.80;;
41061;SDS011;26812;42.662;23.352;2023-07-02T09:31:04;5.65;;;4.43;;
41061;SDS011;26812;42.662;23.352;2023-07-02T09:33:29;7.70;;;4.00;;
41061;SDS011;26812;42.662;23.352;2023-07-02T09:35:56;6.25;;;4.30;;
41061;SDS011;26812;42.662;23.352;2023-07-02T09:38:21;6.35;;;4.25;;
41061;SDS011;26812;42.662;23.352;2023-07-02T09:40:51;7.57;;;4.65;;
41061;SDS011;26812;42.662;23.352;2023-07-02T09:43:17;5.25;;;3.90;;
41061;SDS011;26812;42.662;23.352;2023-07-02T09:45:44;6.97;;;4.00;;
41061;SDS011;26812;42.662;23.352;2023-07-02T09:48:14;5.78;;;3.80;;
41061;SDS011;26812;42.662;23.352;2023-07-02T09:50:44;5.72;;;3.95;;
41061;SDS011;26812;42.662;23.352;2023-07-02T09:53:12;6.90;;;4.25;;
41061;SDS011;26812;42.662;23.352;2023-07-02T09:55:38;8.32;;;4.47;;
41061;SDS011;26812;42.662;23.352;2023-07-02T09:58:04;5.95;;;3.90;;
41061;SDS011;26812;42.662;23.352;2023-07-02T10:00:30;5.28;;;3.50;;
41061;SDS011;26812;42.662;23.352;2023-07-02T10:02:56;6.65;;;3.83;;
41061;SDS011;26812;42.662;23.352;2023-07-02T10:05:32;8.35;;;3.92;;
41061;SDS011;26812;42.662;23.352;2023-07-02T10:07:59;7.32;;;3.70;;
41061;SDS011;26812;42.662;23.352;2023-07-02T10:10:48;5.40;;;3.83;;
41061;SDS011;26812;42.662;23.352;2023-07-02T10:13:13;6.15;;;3.45;;
41061;SDS011;26812;42.662;23.352;2023-07-02T10:15:39;5.32;;;3.45;;
41061;SDS011;26812;42.662;23.352;2023-07-02T10:18:05;4.97;;;3.00;;
41061;SDS011;26812;42.662;23.352;2023-07-02T10:20:32;6.60;;;3.72;;
41061;SDS011;26812;42.662;23.352;2023-07-02T10:23:02;6.65;;;4.25;;
41061;SDS011;26812;42.662;23.352;2023-07-02T10:27:56;5.53;;;3.53;;
41061;SDS011;26812;42.662;23.352;2023-07-02T10:30:36;4.75;;;3.17;;
41061;SDS011;26812;42.662;23.352;2023-07-02T10:33:09;7.93;;;3.58;;
41061;SDS011;26812;42.662;23.352;2023-07-02T10:35:35;7.30;;;3.42;;
41061;SDS011;26812;42.662;23.352;2023-07-02T10:38:01;6.20;;;3.38;;
41061;SDS011;26812;42.662;23.352;2023-07-02T10:40:26;5.18;;;3.08;;
41061;SDS011;26812;42.662;23.352;2023-07-02T10:42:52;5.35;;;3.28;;
41061;SDS011;26812;42.662;23.352;2023-07-02T10:45:18;5.53;;;3.35;;
41061;SDS011;26812;42.662;23.352;2023-07-02T10:47:44;3.80;;;2.53;;
41061;SDS011;26812;42.662;23.352;2023-07-02T10:50:17;6.63;;;3.08;;
41061;SDS011;26812;42.662;23.352;2023-07-02T10:52:44;7.20;;;3.88;;
41061;SDS011;26812;42.662;23.352;2023-07-02T10:55:09;5.28;;;3.30;;
41061;SDS011;26812;42.662;23.352;2023-07-02T10:57:35;5.53;;;2.95;;
41061;SDS011;26812;42.662;23.352;2023-07-02T11:00:04;4.15;;;2.85;;
41061;SDS011;26812;42.662;23.352;2023-07-02T11:02:38;4.28;;;2.60;;
41061;SDS011;26812;42.662;23.352;2023-07-02T11:05:08;5.60;;;3.10;;
41061;SDS011;26812;42.662;23.352;2023-07-02T11:07:40;5.00;;;2.95;;
41061;SDS011;26812;42.662;23.352;2023-07-02T11:10:07;3.78;;;2.78;;
41061;SDS011;26812;42.662;23.352;2023-07-02T11:12:34;5.63;;;3.20;;
41061;SDS011;26812;42.662;23.352;2023-07-02T11:15:07;5.28;;;4.07;;
41061;SDS011;26812;42.662;23.352;2023-07-02T11:17:36;4.63;;;3.22;;
41061;SDS011;26812;42.662;23.352;2023-07-02T11:20:01;5.03;;;3.45;;
41061;SDS011;26812;42.662;23.352;2023-07-02T11:22:33;4.75;;;2.95;;
41061;SDS011;26812;42.662;23.352;2023-07-02T11:27:40;5.78;;;3.47;;
41061;SDS011;26812;42.662;23.352;2023-07-02T11:30:07;5.28;;;3.35;;
41061;SDS011;26812;42.662;23.352;2023-07-02T11:32:52;3.97;;;2.83;;
41061;SDS011;26812;42.662;23.352;2023-07-02T11:45:01;4.70;;;2.07;;
41061;SDS011;26812;42.662;23.352;2023-07-02T11:47:27;5.60;;;2.75;;
41061;SDS011;26812;42.662;23.352;2023-07-02T11:49:52;4.07;;;2.83;;
41061;SDS011;26812;42.662;23.352;2023-07-02T11:52:20;6.95;;;2.40;;
41061;SDS011;26812;42.662;23.352;2023-07-02T11:54:45;6.72;;;2.67;;
41061;SDS011;26812;42.662;23.352;2023-07-02T11:57:11;5.10;;;2.97;;
41061;SDS011;26812;42.662;23.352;2023-07-02T11:59:36;5.00;;;2.83;;
41061;SDS011;26812;42.662;23.352;2023-07-02T12:02:02;6.78;;;3.55;;
41061;SDS011;26812;42.662;23.352;2023-07-02T12:04:28;4.32;;;2.53;;
41061;SDS011;26812;42.662;23.352;2023-07-02T12:06:53;5.97;;;3.95;;
41061;SDS011;26812;42.662;23.352;2023-07-02T12:09:18;5.05;;;3.00;;
41061;SDS011;26812;42.662;23.352;2023-07-02T12:11:44;5.35;;;2.95;;
41061;SDS011;26812;42.662;23.352;2023-07-02T12:14:11;4.90;;;2.40;;
41061;SDS011;26812;42.662;23.352;2023-07-02T12:16:36;3.15;;;2.47;;
41061;SDS011;26812;42.662;23.352;2023-07-02T12:19:01;6.43;;;2.75;;
41061;SDS011;26812;42.662;23.352;2023-07-02T12:21:27;3.88;;;2.92;;
41061;SDS011;26812;42.662;23.352;2023-07-02T12:23:52;5.65;;;2.75;;
41061;SDS011;26812;42.662;23.352;2023-07-02T12:26:18;4.35;;;2.38;;
41061;SDS011;26812;42.662;23.352;2023-07-02T12:28:43;4.00;;;2.63;;
41061;SDS011;26812;42.662;23.352;2023-07-02T12:31:09;4.80;;;2.60;;
41061;SDS011;26812;42.662;23.352;2023-07-02T12:33:35;4.97;;;2.33;;
41061;SDS011;26812;42.662;23.352;2023-07-02T12:36:00;4.32;;;2.50;;
41061;SDS011;26812;42.662;23.352;2023-07-02T12:38:25;3.80;;;2.70;;
41061;SDS011;26812;42.662;23.352;2023-07-02T12:40:51;4.53;;;2.78;;
41061;SDS011;26812;42.662;23.352;2023-07-02T12:43:16;4.28;;;2.65;;
41061;SDS011;26812;42.662;23.352;2023-07-02T12:45:42;4.78;;;2.97;;
41061;SDS011;26812;42.662;23.352;2023-07-02T12:48:07;5.35;;;2.95;;
41061;SDS011;26812;42.662;23.352;2023-07-02T12:50:34;4.55;;;2.83;;
41061;SDS011;26812;42.662;23.352;2023-07-02T12:52:59;5.03;;;3.25;;
41061;SDS011;26812;42.662;23.352;2023-07-02T12:55:24;7.03;;;3.47;;
41061;SDS011;26812;42.662;23.352;2023-07-02T12:57:50;4.78;;;3.00;;
41061;SDS011;26812;42.662;23.352;2023-07-02T13:00:15;4.28;;;2.63;;
41061;SDS011;26812;42.662;23.352;2023-07-02T13:02:41;4.55;;;3.58;;
41061;SDS011;26812;42.662;23.352;2023-07-02T13:05:06;7.28;;;3.42;;
41061;SDS011;26812;42.662;23.352;2023-07-02T13:07:32;4.50;;;3.17;;
41061;SDS011;26812;42.662;23.352;2023-07-02T13:09:57;4.80;;;2.70;;
41061;SDS011;26812;42.662;23.352;2023-07-02T13:12:22;6.05;;;3.70;;
41061;SDS011;26812;42.662;23.352;2023-07-02T13:14:48;6.07;;;3.90;;
41061;SDS011;26812;42.662;23.352;2023-07-02T13:17:13;5.75;;;3.08;;
41061;SDS011;26812;42.662;23.352;2023-07-02T13:19:39;4.63;;;2.83;;
41061;SDS011;26812;42.662;23.352;2023-07-02T13:22:04;6.03;;;3.03;;
41061;SDS011;26812;42.662;23.352;2023-07-02T13:24:33;6.18;;;3.30;;
41061;SDS011;26812;42.662;23.352;2023-07-02T13:27:00;5.82;;;3.25;;
41061;SDS011;26812;42.662;23.352;2023-07-02T13:29:27;6.07;;;3.20;;
41061;SDS011;26812;42.662;23.352;2023-07-02T13:31:52;4.78;;;3.35;;
41061;SDS011;26812;42.662;23.352;2023-07-02T13:34:18;6.47;;;3.33;;
41061;SDS011;26812;42.662;23.352;2023-07-02T13:36:43;7.90;;;4.20;;
41061;SDS011;26812;42.662;23.352;2023-07-02T13:39:08;5.88;;;4.03;;
41061;SDS011;26812;42.662;23.352;2023-07-02T13:41:34;5.05;;;3.28;;
41061;SDS011;26812;42.662;23.352;2023-07-02T13:44:00;6.43;;;3.28;;
41061;SDS011;26812;42.662;23.352;2023-07-02T13:46:25;4.85;;;3.42;;
41061;SDS011;26812;42.662;23.352;2023-07-02T13:48:50;6.80;;;4.55;;
41061;SDS011;26812;42.662;23.352;2023-07-02T13:51:16;5.50;;;3.80;;
41061;SDS011;26812;42.662;23.352;2023-07-02T13:53:41;5.35;;;3.42;;
41061;SDS011;26812;42.662;23.352;2023-07-02T13:56:07;5.10;;;3.97;;
41061;SDS011;26812;42.662;23.352;2023-07-02T14:01:19;4.88;;;3.30;;
41061;SDS011;26812;42.662;23.352;2023-07-02T14:03:45;9.43;;;5.75;;
41061;SDS011;26812;42.662;23.352;2023-07-02T14:06:10;8.45;;;4.28;;
41061;SDS011;26812;42.662;23.352;2023-07-02T14:08:35;6.70;;;4.07;;
41061;SDS011;26812;42.662;23.352;2023-07-02T14:11:01;5.15;;;3.65;;
41061;SDS011;26812;42.662;23.352;2023-07-02T14:13:27;6.63;;;4.75;;
41061;SDS011;26812;42.662;23.352;2023-07-02T14:15:52;5.40;;;3.67;;
41061;SDS011;26812;42.662;23.352;2023-07-02T14:18:17;5.63;;;3.42;;
41061;SDS011;26812;42.662;23.352;2023-07-02T14:20:42;5.85;;;3.22;;
41061;SDS011;26812;42.662;23.352;2023-07-02T14:23:08;4.35;;;3.78;;
41061;SDS011;26812;42.662;23.352;2023-07-02T14:25:34;4.47;;;3.38;;
41061;SDS011;26812;42.662;23.352;2023-07-02T14:27:59;7.43;;;3.28;;
41061;SDS011;26812;42.662;23.352;2023-07-02T14:30:24;7.60;;;3.88;;
41061;SDS011;26812;42.662;23.352;2023-07-02T14:32:50;4.47;;;3.40;;
41061;SDS011;26812;42.662;23.352;2023-07-02T14:35:15;7.45;;;3.72;;
41061;SDS011;26812;42.662;23.352;2023-07-02T14:37:41;7.45;;;4.03;;
41061;SDS011;26812;42.662;23.352;2023-07-02T14:40:06;8.35;;;3.88;;
41061;SDS011;26812;42.662;23.352;2023-07-02T14:42:32;6.35;;;3.50;;
41061;SDS011;26812;42.662;23.352;2023-07-02T14:44:57;6.68;;;4.40;;
41061;SDS011;26812;42.662;23.352;2023-07-02T14:47:23;7.07;;;3.85;;
41061;SDS011;26812;42.662;23.352;2023-07-02T14:49:48;6.40;;;4.20;;
41061;SDS011;26812;42.662;23.352;2023-07-02T14:52:14;7.03;;;4.10;;
41061;SDS011;26812;42.662;23.352;2023-07-02T14:54:39;8.75;;;4.65;;